This is the latest recevied weather packets stored in our database for station/object NG6B-2. If no packets are shown the sender has not sent any weather packets the latest 10 day(s).
| Time | Temp. | Humidity | Pressure | Rain* | Wind** | Luminosity | Snow |
|---|---|---|---|---|---|---|---|
| 1777154233 | 27.22° C | 9% | 1002.7 hPa | 0 mm | - | - | - |
| 1777152432 | 26.67° C | 9% | 1003.1 hPa | 0 mm | - | - | - |
| 1777150631 | 27.78° C | 9% | 1003.2 hPa | 0 mm | - | - | - |
| 1777148830 | 27.22° C | 9% | 1003.5 hPa | 0 mm | - | - | - |
| 1777147029 | 28.33° C | 8% | 1003.7 hPa | 0 mm | - | - | - |
| 1777145228 | 27.78° C | 7% | 1003.8 hPa | 0 mm | - | - | - |
| 1777143427 | 27.22° C | 10% | 1004.3 hPa | 0 mm | - | - | - |
| 1777141626 | 26.67° C | 10% | 1004.7 hPa | 0 mm | - | - | - |
| 1777139825 | 26.67° C | 11% | 1004.9 hPa | 0 mm | - | - | - |
| 1777138024 | 26.11° C | 10% | 1005 hPa | 0 mm | - | - | - |
| 1777136223 | 25° C | 11% | 1005 hPa | 0 mm | - | - | - |
| 1777134422 | 24.44° C | 13% | 1004.9 hPa | 0 mm | - | - | - |
| 1777132621 | 23.33° C | 14% | 1005 hPa | 0 mm | - | - | - |
| 1777130820 | 22.22° C | 15% | 1005.1 hPa | 0 mm | - | - | - |
| 1777129019 | 21.11° C | 18% | 1005.1 hPa | 0 mm | - | - | - |
| 1777127218 | 19.44° C | 21% | 1005.1 hPa | 0 mm | - | - | - |
| 1777125417 | 17.78° C | 23% | 1004.9 hPa | 0 mm | - | - | - |
| 1777123616 | 14.44° C | 28% | 1004.5 hPa | 0 mm | - | - | - |
| 1777121815 | 13.89° C | 29% | 1003.8 hPa | 0 mm | - | - | - |
| 1777120014 | 13.89° C | 26% | 1003.7 hPa | 0 mm | - | - | - |
| 1777118213 | 14.44° C | 22% | 1003.7 hPa | 0 mm | - | - | - |
| 1777116412 | 13.89° C | 25% | 1003.7 hPa | 0 mm | - | - | - |
| 1777114611 | 14.44° C | 26% | 1004 hPa | 0 mm | - | - | - |
| 1777112810 | 14.44° C | 27% | 1004 hPa | 0 mm | - | - | - |
| 1777111009 | 14.44° C | 27% | 1003.9 hPa | 0 mm | - | - | - |
* Rain latest hour (hover to see other rain measurements)
** Current wind speed in m/s (hover to see current wind gust speed)